sensor_id;sensor_type;location;lat;lon;timestamp;temperature;humidity
13074;DHT22;6603;47.066;15.396;2023-04-03T00:00:44;6.10;99.90
13074;DHT22;6603;47.066;15.396;2023-04-03T00:03:10;6.10;99.90
13074;DHT22;6603;47.066;15.396;2023-04-03T00:05:36;6.10;99.90
13074;DHT22;6603;47.066;15.396;2023-04-03T00:08:02;6.10;99.90
13074;DHT22;6603;47.066;15.396;2023-04-03T00:10:28;6.00;99.90
13074;DHT22;6603;47.066;15.396;2023-04-03T00:12:54;6.00;99.90
13074;DHT22;6603;47.066;15.396;2023-04-03T00:15:20;6.00;99.90
13074;DHT22;6603;47.066;15.396;2023-04-03T00:17:46;6.00;99.90
13074;DHT22;6603;47.066;15.396;2023-04-03T00:20:12;5.90;99.90
13074;DHT22;6603;47.066;15.396;2023-04-03T00:22:38;5.90;99.90
13074;DHT22;6603;47.066;15.396;2023-04-03T00:25:04;5.90;99.90
13074;DHT22;6603;47.066;15.396;2023-04-03T00:27:30;5.80;99.90
13074;DHT22;6603;47.066;15.396;2023-04-03T00:29:56;5.80;99.90
13074;DHT22;6603;47.066;15.396;2023-04-03T00:32:22;5.70;99.90
13074;DHT22;6603;47.066;15.396;2023-04-03T00:34:48;5.70;99.90
13074;DHT22;6603;47.066;15.396;2023-04-03T00:37:14;5.70;99.90
13074;DHT22;6603;47.066;15.396;2023-04-03T00:39:40;5.70;99.90
13074;DHT22;6603;47.066;15.396;2023-04-03T00:42:06;5.60;99.90
13074;DHT22;6603;47.066;15.396;2023-04-03T00:46:59;5.60;99.90
13074;DHT22;6603;47.066;15.396;2023-04-03T00:49:26;5.60;99.90
13074;DHT22;6603;47.066;15.396;2023-04-03T00:51:53;5.60;99.90
13074;DHT22;6603;47.066;15.396;2023-04-03T00:54:19;5.60;99.90
13074;DHT22;6603;47.066;15.396;2023-04-03T00:56:45;5.50;99.90
13074;DHT22;6603;47.066;15.396;2023-04-03T00:59:18;5.50;99.90
13074;DHT22;6603;47.066;15.396;2023-04-03T01:01:46;5.40;99.90
13074;DHT22;6603;47.066;15.396;2023-04-03T01:04:46;5.40;99.90
13074;DHT22;6603;47.066;15.396;2023-04-03T01:07:20;5.40;99.90
13074;DHT22;6603;47.066;15.396;2023-04-03T01:09:49;5.50;99.90
13074;DHT22;6603;47.066;15.396;2023-04-03T01:12:26;5.40;99.90
13074;DHT22;6603;47.066;15.396;2023-04-03T01:14:58;5.30;99.90
13074;DHT22;6603;47.066;15.396;2023-04-03T01:25:23;5.30;1.00
13074;DHT22;6603;47.066;15.396;2023-04-03T01:27:49;5.20;1.00
13074;DHT22;6603;47.066;15.396;2023-04-03T01:30:18;5.10;1.00
13074;DHT22;6603;47.066;15.396;2023-04-03T01:32:44;5.10;1.00
13074;DHT22;6603;47.066;15.396;2023-04-03T01:35:10;5.20;1.00
13074;DHT22;6603;47.066;15.396;2023-04-03T01:37:36;5.20;1.00
13074;DHT22;6603;47.066;15.396;2023-04-03T01:40:03;5.20;1.00
13074;DHT22;6603;47.066;15.396;2023-04-03T01:42:29;5.20;1.00
13074;DHT22;6603;47.066;15.396;2023-04-03T01:44:55;5.20;1.00
13074;DHT22;6603;47.066;15.396;2023-04-03T01:47:22;5.20;1.00
13074;DHT22;6603;47.066;15.396;2023-04-03T01:49:48;5.20;1.00
13074;DHT22;6603;47.066;15.396;2023-04-03T01:52:14;5.00;1.00
13074;DHT22;6603;47.066;15.396;2023-04-03T01:54:40;5.00;1.00
13074;DHT22;6603;47.066;15.396;2023-04-03T01:57:06;5.10;1.00
13074;DHT22;6603;47.066;15.396;2023-04-03T01:59:31;5.10;1.00
13074;DHT22;6603;47.066;15.396;2023-04-03T02:01:57;5.00;1.00
13074;DHT22;6603;47.066;15.396;2023-04-03T02:04:23;5.00;1.00
13074;DHT22;6603;47.066;15.396;2023-04-03T02:06:49;5.00;1.00
13074;DHT22;6603;47.066;15.396;2023-04-03T02:09:15;5.00;1.00
13074;DHT22;6603;47.066;15.396;2023-04-03T02:11:41;5.00;1.00
13074;DHT22;6603;47.066;15.396;2023-04-03T02:14:07;4.90;1.00
13074;DHT22;6603;47.066;15.396;2023-04-03T02:16:33;5.00;1.00
13074;DHT22;6603;47.066;15.396;2023-04-03T02:18:59;5.00;1.00
13074;DHT22;6603;47.066;15.396;2023-04-03T02:21:25;5.00;1.00
13074;DHT22;6603;47.066;15.396;2023-04-03T02:23:51;5.00;1.00
13074;DHT22;6603;47.066;15.396;2023-04-03T02:26:17;4.90;99.90
13074;DHT22;6603;47.066;15.396;2023-04-03T02:28:43;5.00;99.90
13074;DHT22;6603;47.066;15.396;2023-04-03T02:31:09;5.00;99.90
13074;DHT22;6603;47.066;15.396;2023-04-03T02:33:36;4.90;99.90
13074;DHT22;6603;47.066;15.396;2023-04-03T02:36:04;4.90;99.90
13074;DHT22;6603;47.066;15.396;2023-04-03T02:38:30;4.90;99.90
13074;DHT22;6603;47.066;15.396;2023-04-03T02:41:05;4.90;99.90
13074;DHT22;6603;47.066;15.396;2023-04-03T02:43:32;4.90;99.90
13074;DHT22;6603;47.066;15.396;2023-04-03T02:45:57;4.90;99.90
13074;DHT22;6603;47.066;15.396;2023-04-03T02:48:24;4.80;99.90
13074;DHT22;6603;47.066;15.396;2023-04-03T02:50:50;4.90;99.90
13074;DHT22;6603;47.066;15.396;2023-04-03T02:53:16;4.80;99.90
13074;DHT22;6603;47.066;15.396;2023-04-03T02:55:42;4.80;99.90
13074;DHT22;6603;47.066;15.396;2023-04-03T02:58:08;4.70;99.90
13074;DHT22;6603;47.066;15.396;2023-04-03T03:00:34;4.70;99.90
13074;DHT22;6603;47.066;15.396;2023-04-03T03:03:00;4.80;99.90
13074;DHT22;6603;47.066;15.396;2023-04-03T03:05:27;4.70;99.90
13074;DHT22;6603;47.066;15.396;2023-04-03T03:07:53;4.80;99.90
13074;DHT22;6603;47.066;15.396;2023-04-03T03:10:19;4.70;99.90
13074;DHT22;6603;47.066;15.396;2023-04-03T03:12:45;4.70;99.90
13074;DHT22;6603;47.066;15.396;2023-04-03T03:15:12;4.60;99.90
13074;DHT22;6603;47.066;15.396;2023-04-03T03:17:38;4.70;99.90
13074;DHT22;6603;47.066;15.396;2023-04-03T03:20:05;4.70;99.90
13074;DHT22;6603;47.066;15.396;2023-04-03T03:22:33;4.70;99.90
13074;DHT22;6603;47.066;15.396;2023-04-03T03:24:59;4.80;99.90
13074;DHT22;6603;47.066;15.396;2023-04-03T03:27:26;4.80;99.90
13074;DHT22;6603;47.066;15.396;2023-04-03T03:29:52;4.90;99.90
13074;DHT22;6603;47.066;15.396;2023-04-03T03:32:18;4.90;99.90
13074;DHT22;6603;47.066;15.396;2023-04-03T03:34:44;4.90;99.90
13074;DHT22;6603;47.066;15.396;2023-04-03T03:37:10;4.90;99.90
13074;DHT22;6603;47.066;15.396;2023-04-03T03:39:36;4.90;99.90
13074;DHT22;6603;47.066;15.396;2023-04-03T03:42:02;4.90;99.90
13074;DHT22;6603;47.066;15.396;2023-04-03T03:44:29;4.90;99.90
13074;DHT22;6603;47.066;15.396;2023-04-03T03:46:55;4.90;99.90
13074;DHT22;6603;47.066;15.396;2023-04-03T03:49:22;4.90;99.90
13074;DHT22;6603;47.066;15.396;2023-04-03T03:51:48;4.80;99.90
13074;DHT22;6603;47.066;15.396;2023-04-03T03:54:14;4.90;99.90
13074;DHT22;6603;47.066;15.396;2023-04-03T03:56:40;5.00;99.90
13074;DHT22;6603;47.066;15.396;2023-04-03T03:59:06;5.00;99.90
13074;DHT22;6603;47.066;15.396;2023-04-03T04:01:32;5.00;99.90
13074;DHT22;6603;47.066;15.396;2023-04-03T04:03:58;5.00;99.90
13074;DHT22;6603;47.066;15.396;2023-04-03T04:06:24;5.00;99.90
13074;DHT22;6603;47.066;15.396;2023-04-03T04:08:50;5.00;99.90
13074;DHT22;6603;47.066;15.396;2023-04-03T04:11:17;5.00;99.90
13074;DHT22;6603;47.066;15.396;2023-04-03T04:13:43;5.00;99.90
13074;DHT22;6603;47.066;15.396;2023-04-03T04:16:08;5.00;99.90
13074;DHT22;6603;47.066;15.396;2023-04-03T04:18:35;5.00;99.90
13074;DHT22;6603;47.066;15.396;2023-04-03T04:21:01;5.10;99.90
13074;DHT22;6603;47.066;15.396;2023-04-03T04:23:27;5.10;99.90
13074;DHT22;6603;47.066;15.396;2023-04-03T04:25:53;5.00;99.90
13074;DHT22;6603;47.066;15.396;2023-04-03T04:28:19;5.00;99.90
13074;DHT22;6603;47.066;15.396;2023-04-03T04:30:45;5.00;99.90
13074;DHT22;6603;47.066;15.396;2023-04-03T04:33:11;5.00;99.90
13074;DHT22;6603;47.066;15.396;2023-04-03T04:35:38;4.90;99.90
13074;DHT22;6603;47.066;15.396;2023-04-03T04:38:03;4.90;99.90
13074;DHT22;6603;47.066;15.396;2023-04-03T04:40:30;5.00;99.90
13074;DHT22;6603;47.066;15.396;2023-04-03T04:42:56;4.90;99.90
13074;DHT22;6603;47.066;15.396;2023-04-03T04:45:22;4.90;99.90
13074;DHT22;6603;47.066;15.396;2023-04-03T04:47:47;4.90;99.90
13074;DHT22;6603;47.066;15.396;2023-04-03T04:50:14;4.90;99.90
13074;DHT22;6603;47.066;15.396;2023-04-03T04:52:40;4.90;99.90
13074;DHT22;6603;47.066;15.396;2023-04-03T04:55:07;4.90;99.90
13074;DHT22;6603;47.066;15.396;2023-04-03T04:57:33;4.90;99.90
13074;DHT22;6603;47.066;15.396;2023-04-03T05:00:00;4.90;99.90
13074;DHT22;6603;47.066;15.396;2023-04-03T05:02:26;4.90;99.90
13074;DHT22;6603;47.066;15.396;2023-04-03T05:04:51;4.90;99.90
13074;DHT22;6603;47.066;15.396;2023-04-03T05:07:17;5.00;99.90
13074;DHT22;6603;47.066;15.396;2023-04-03T05:09:43;5.00;99.90
13074;DHT22;6603;47.066;15.396;2023-04-03T05:12:09;5.00;99.90
13074;DHT22;6603;47.066;15.396;2023-04-03T05:14:35;5.00;99.90
13074;DHT22;6603;47.066;15.396;2023-04-03T05:17:00;5.00;99.90
13074;DHT22;6603;47.066;15.396;2023-04-03T05:19:26;5.00;99.90
13074;DHT22;6603;47.066;15.396;2023-04-03T05:21:52;5.00;99.90
13074;DHT22;6603;47.066;15.396;2023-04-03T05:24:17;5.00;99.90
13074;DHT22;6603;47.066;15.396;2023-04-03T05:26:43;5.10;99.90
13074;DHT22;6603;47.066;15.396;2023-04-03T05:29:09;5.10;99.90
13074;DHT22;6603;47.066;15.396;2023-04-03T05:31:35;5.10;99.90
13074;DHT22;6603;47.066;15.396;2023-04-03T05:34:02;5.10;96.00
13074;DHT22;6603;47.066;15.396;2023-04-03T05:36:28;5.00;92.30
13074;DHT22;6603;47.066;15.396;2023-04-03T05:38:53;5.10;57.10
13074;DHT22;6603;47.066;15.396;2023-04-03T05:41:21;5.00;30.50
13074;DHT22;6603;47.066;15.396;2023-04-03T05:43:47;5.10;32.90
13074;DHT22;6603;47.066;15.396;2023-04-03T05:46:15;5.10;18.80
13074;DHT22;6603;47.066;15.396;2023-04-03T05:48:42;5.20;15.60
13074;DHT22;6603;47.066;15.396;2023-04-03T05:51:14;5.20;37.60
13074;DHT22;6603;47.066;15.396;2023-04-03T05:53:41;5.30;16.70
13074;DHT22;6603;47.066;15.396;2023-04-03T05:56:07;5.40;21.20
13074;DHT22;6603;47.066;15.396;2023-04-03T05:58:33;5.40;28.30
13074;DHT22;6603;47.066;15.396;2023-04-03T06:00:59;5.40;20.10
13074;DHT22;6603;47.066;15.396;2023-04-03T06:03:25;5.40;6.50
13074;DHT22;6603;47.066;15.396;2023-04-03T06:05:51;5.40;1.00
13074;DHT22;6603;47.066;15.396;2023-04-03T06:08:17;5.50;1.00
13074;DHT22;6603;47.066;15.396;2023-04-03T06:10:43;5.50;1.00
13074;DHT22;6603;47.066;15.396;2023-04-03T06:13:08;5.50;3.40
13074;DHT22;6603;47.066;15.396;2023-04-03T06:15:34;5.50;7.20
13074;DHT22;6603;47.066;15.396;2023-04-03T06:18:00;5.50;5.10
13074;DHT22;6603;47.066;15.396;2023-04-03T06:20:26;5.60;1.00
13074;DHT22;6603;47.066;15.396;2023-04-03T06:22:52;5.50;1.00
13074;DHT22;6603;47.066;15.396;2023-04-03T06:25:18;5.50;4.80
13074;DHT22;6603;47.066;15.396;2023-04-03T06:27:44;5.50;1.00
13074;DHT22;6603;47.066;15.396;2023-04-03T06:30:11;5.40;3.60
13074;DHT22;6603;47.066;15.396;2023-04-03T06:32:37;5.40;15.80
13074;DHT22;6603;47.066;15.396;2023-04-03T06:35:04;5.40;64.60
13074;DHT22;6603;47.066;15.396;2023-04-03T06:37:30;5.40;86.80
13074;DHT22;6603;47.066;15.396;2023-04-03T06:39:56;5.30;57.00
13074;DHT22;6603;47.066;15.396;2023-04-03T06:42:22;5.30;99.90
13074;DHT22;6603;47.066;15.396;2023-04-03T06:44:48;5.20;99.90
13074;DHT22;6603;47.066;15.396;2023-04-03T06:47:16;5.30;99.90
13074;DHT22;6603;47.066;15.396;2023-04-03T06:49:42;5.30;99.90
13074;DHT22;6603;47.066;15.396;2023-04-03T06:52:08;5.20;99.90
13074;DHT22;6603;47.066;15.396;2023-04-03T06:54:34;5.20;99.90
13074;DHT22;6603;47.066;15.396;2023-04-03T06:57:01;5.20;99.90
13074;DHT22;6603;47.066;15.396;2023-04-03T06:59:28;5.10;99.90
13074;DHT22;6603;47.066;15.396;2023-04-03T07:01:53;5.10;99.90
13074;DHT22;6603;47.066;15.396;2023-04-03T07:04:19;5.10;99.90
13074;DHT22;6603;47.066;15.396;2023-04-03T07:06:46;5.10;99.90
13074;DHT22;6603;47.066;15.396;2023-04-03T07:09:14;5.00;99.90
13074;DHT22;6603;47.066;15.396;2023-04-03T07:11:40;5.00;99.90
13074;DHT22;6603;47.066;15.396;2023-04-03T07:14:06;5.00;99.90
13074;DHT22;6603;47.066;15.396;2023-04-03T07:16:34;5.00;99.90
13074;DHT22;6603;47.066;15.396;2023-04-03T07:19:01;5.10;99.90
13074;DHT22;6603;47.066;15.396;2023-04-03T07:21:27;5.10;99.90
13074;DHT22;6603;47.066;15.396;2023-04-03T07:23:54;5.10;99.90
13074;DHT22;6603;47.066;15.396;2023-04-03T07:26:20;5.20;99.90
13074;DHT22;6603;47.066;15.396;2023-04-03T07:28:47;5.20;99.90
13074;DHT22;6603;47.066;15.396;2023-04-03T07:31:15;5.20;99.90
13074;DHT22;6603;47.066;15.396;2023-04-03T07:33:43;5.20;99.90
13074;DHT22;6603;47.066;15.396;2023-04-03T07:36:10;5.20;99.90
13074;DHT22;6603;47.066;15.396;2023-04-03T07:38:39;5.20;99.90
13074;DHT22;6603;47.066;15.396;2023-04-03T07:41:05;5.30;95.10
13074;DHT22;6603;47.066;15.396;2023-04-03T07:43:31;5.30;75.30
13074;DHT22;6603;47.066;15.396;2023-04-03T07:45:58;5.40;58.30
13074;DHT22;6603;47.066;15.396;2023-04-03T07:48:25;5.40;24.00
13074;DHT22;6603;47.066;15.396;2023-04-03T07:50:51;5.50;11.10
13074;DHT22;6603;47.066;15.396;2023-04-03T07:53:18;5.40;1.00
13074;DHT22;6603;47.066;15.396;2023-04-03T07:55:47;5.50;1.00
13074;DHT22;6603;47.066;15.396;2023-04-03T07:58:16;5.50;1.00
13074;DHT22;6603;47.066;15.396;2023-04-03T08:00:45;5.50;1.00
13074;DHT22;6603;47.066;15.396;2023-04-03T08:03:12;5.60;1.00
13074;DHT22;6603;47.066;15.396;2023-04-03T08:05:40;5.60;1.00
13074;DHT22;6603;47.066;15.396;2023-04-03T08:08:07;5.70;1.00
13074;DHT22;6603;47.066;15.396;2023-04-03T08:10:34;5.80;1.00
13074;DHT22;6603;47.066;15.396;2023-04-03T08:13:00;5.90;1.00
13074;DHT22;6603;47.066;15.396;2023-04-03T08:15:27;6.00;1.00
13074;DHT22;6603;47.066;15.396;2023-04-03T08:17:53;6.10;1.00
13074;DHT22;6603;47.066;15.396;2023-04-03T08:20:20;6.10;1.00
13074;DHT22;6603;47.066;15.396;2023-04-03T08:22:46;6.20;1.00
13074;DHT22;6603;47.066;15.396;2023-04-03T08:25:12;6.40;1.00
13074;DHT22;6603;47.066;15.396;2023-04-03T08:27:38;6.50;1.00
13074;DHT22;6603;47.066;15.396;2023-04-03T08:30:04;6.40;1.00
13074;DHT22;6603;47.066;15.396;2023-04-03T08:32:31;6.40;1.00
13074;DHT22;6603;47.066;15.396;2023-04-03T08:34:57;6.40;1.00
13074;DHT22;6603;47.066;15.396;2023-04-03T08:37:22;6.50;1.00
13074;DHT22;6603;47.066;15.396;2023-04-03T08:39:48;6.50;1.00
13074;DHT22;6603;47.066;15.396;2023-04-03T08:42:36;6.60;1.00
13074;DHT22;6603;47.066;15.396;2023-04-03T08:45:17;6.40;1.00
13074;DHT22;6603;47.066;15.396;2023-04-03T08:47:55;6.40;1.00
13074;DHT22;6603;47.066;15.396;2023-04-03T08:50:39;6.40;1.00
13074;DHT22;6603;47.066;15.396;2023-04-03T08:53:15;6.40;1.00
13074;DHT22;6603;47.066;15.396;2023-04-03T08:55:49;6.50;1.00
13074;DHT22;6603;47.066;15.396;2023-04-03T08:58:25;6.50;1.00
13074;DHT22;6603;47.066;15.396;2023-04-03T09:03:23;6.60;1.00
13074;DHT22;6603;47.066;15.396;2023-04-03T09:06:06;6.80;1.00
13074;DHT22;6603;47.066;15.396;2023-04-03T09:11:36;6.80;1.00
13074;DHT22;6603;47.066;15.396;2023-04-03T09:14:22;6.70;1.00
13074;DHT22;6603;47.066;15.396;2023-04-03T09:21:53;7.10;1.00
13074;DHT22;6603;47.066;15.396;2023-04-03T09:24:22;7.20;1.00
13074;DHT22;6603;47.066;15.396;2023-04-03T09:26:53;7.30;1.00
13074;DHT22;6603;47.066;15.396;2023-04-03T09:29:25;7.40;1.00
13074;DHT22;6603;47.066;15.396;2023-04-03T09:32:00;7.20;1.00
13074;DHT22;6603;47.066;15.396;2023-04-03T09:34:37;7.40;1.00
13074;DHT22;6603;47.066;15.396;2023-04-03T09:37:04;7.40;1.00
13074;DHT22;6603;47.066;15.396;2023-04-03T09:39:51;7.50;1.00
13074;DHT22;6603;47.066;15.396;2023-04-03T09:42:23;7.50;1.00
13074;DHT22;6603;47.066;15.396;2023-04-03T09:45:01;7.80;1.00
13074;DHT22;6603;47.066;15.396;2023-04-03T09:52:39;8.00;1.00
13074;DHT22;6603;47.066;15.396;2023-04-03T09:55:26;8.00;1.00
13074;DHT22;6603;47.066;15.396;2023-04-03T09:57:59;8.00;1.00
13074;DHT22;6603;47.066;15.396;2023-04-03T10:00:46;7.90;1.00
13074;DHT22;6603;47.066;15.396;2023-04-03T10:03:42;7.80;1.00
13074;DHT22;6603;47.066;15.396;2023-04-03T10:06:24;7.80;1.00
13074;DHT22;6603;47.066;15.396;2023-04-03T10:09:23;7.90;1.00
13074;DHT22;6603;47.066;15.396;2023-04-03T10:14:28;8.10;1.00
13074;DHT22;6603;47.066;15.396;2023-04-03T10:22:43;8.10;1.00
13074;DHT22;6603;47.066;15.396;2023-04-03T10:28:12;7.70;1.00
13074;DHT22;6603;47.066;15.396;2023-04-03T10:31:10;7.80;1.00
13074;DHT22;6603;47.066;15.396;2023-04-03T10:34:13;7.90;1.00
13074;DHT22;6603;47.066;15.396;2023-04-03T10:37:02;8.20;1.00
13074;DHT22;6603;47.066;15.396;2023-04-03T10:42:23;8.30;1.00
13074;DHT22;6603;47.066;15.396;2023-04-03T10:58:32;7.80;1.00
13074;DHT22;6603;47.066;15.396;2023-04-03T11:01:07;8.00;1.00
13074;DHT22;6603;47.066;15.396;2023-04-03T11:03:45;8.40;1.00
13074;DHT22;6603;47.066;15.396;2023-04-03T11:06:15;8.80;1.00
13074;DHT22;6603;47.066;15.396;2023-04-03T11:08:56;8.60;1.00
13074;DHT22;6603;47.066;15.396;2023-04-03T11:11:46;9.10;1.00
13074;DHT22;6603;47.066;15.396;2023-04-03T11:14:32;9.10;1.00
13074;DHT22;6603;47.066;15.396;2023-04-03T11:22:29;9.40;1.00
13074;DHT22;6603;47.066;15.396;2023-04-03T11:25:08;9.80;1.00
13074;DHT22;6603;47.066;15.396;2023-04-03T11:30:25;9.40;1.00
13074;DHT22;6603;47.066;15.396;2023-04-03T11:35:51;8.40;1.00
13074;DHT22;6603;47.066;15.396;2023-04-03T11:38:37;8.40;1.00
13074;DHT22;6603;47.066;15.396;2023-04-03T11:41:08;9.10;1.00
13074;DHT22;6603;47.066;15.396;2023-04-03T11:43:40;9.60;1.00
13074;DHT22;6603;47.066;15.396;2023-04-03T11:46:08;9.30;1.00
13074;DHT22;6603;47.066;15.396;2023-04-03T11:51:02;8.90;1.00
13074;DHT22;6603;47.066;15.396;2023-04-03T11:53:37;9.10;1.00
13074;DHT22;6603;47.066;15.396;2023-04-03T12:04:22;9.00;1.00
13074;DHT22;6603;47.066;15.396;2023-04-03T12:06:50;9.20;1.00
13074;DHT22;6603;47.066;15.396;2023-04-03T12:12:00;8.80;1.00
13074;DHT22;6603;47.066;15.396;2023-04-03T12:14:28;8.70;1.00
13074;DHT22;6603;47.066;15.396;2023-04-03T12:16:55;8.60;1.00
13074;DHT22;6603;47.066;15.396;2023-04-03T12:19:37;8.70;1.00
13074;DHT22;6603;47.066;15.396;2023-04-03T12:22:13;8.80;1.00
13074;DHT22;6603;47.066;15.396;2023-04-03T12:24:45;8.70;1.00
13074;DHT22;6603;47.066;15.396;2023-04-03T12:32:46;8.90;1.00
13074;DHT22;6603;47.066;15.396;2023-04-03T12:35:37;8.80;1.00
13074;DHT22;6603;47.066;15.396;2023-04-03T12:41:27;10.30;1.00
13074;DHT22;6603;47.066;15.396;2023-04-03T12:44:13;10.30;1.00
13074;DHT22;6603;47.066;15.396;2023-04-03T12:46:48;9.80;1.00
13074;DHT22;6603;47.066;15.396;2023-04-03T12:49:33;9.90;1.00
13074;DHT22;6603;47.066;15.396;2023-04-03T12:52:00;9.20;1.00
13074;DHT22;6603;47.066;15.396;2023-04-03T12:54:38;8.80;1.00
13074;DHT22;6603;47.066;15.396;2023-04-03T12:57:23;8.70;1.00
13074;DHT22;6603;47.066;15.396;2023-04-03T12:59:50;9.50;1.00
13074;DHT22;6603;47.066;15.396;2023-04-03T13:02:45;9.70;1.00
13074;DHT22;6603;47.066;15.396;2023-04-03T13:05:17;10.10;1.00
13074;DHT22;6603;47.066;15.396;2023-04-03T13:07:44;9.90;1.00
13074;DHT22;6603;47.066;15.396;2023-04-03T13:10:16;10.00;1.00
13074;DHT22;6603;47.066;15.396;2023-04-03T13:12:46;9.60;1.00
13074;DHT22;6603;47.066;15.396;2023-04-03T13:15:25;9.60;1.00
13074;DHT22;6603;47.066;15.396;2023-04-03T13:17:53;9.40;1.00
13074;DHT22;6603;47.066;15.396;2023-04-03T13:20:27;9.30;1.00
13074;DHT22;6603;47.066;15.396;2023-04-03T13:23:08;9.40;1.00
13074;DHT22;6603;47.066;15.396;2023-04-03T13:25:40;9.40;1.00
13074;DHT22;6603;47.066;15.396;2023-04-03T13:28:07;9.30;1.00
13074;DHT22;6603;47.066;15.396;2023-04-03T13:30:38;8.90;1.00
13074;DHT22;6603;47.066;15.396;2023-04-03T13:33:18;8.60;1.00
13074;DHT22;6603;47.066;15.396;2023-04-03T13:35:45;8.70;1.00
13074;DHT22;6603;47.066;15.396;2023-04-03T13:40:51;8.70;1.00
13074;DHT22;6603;47.066;15.396;2023-04-03T13:43:24;8.30;1.00
13074;DHT22;6603;47.066;15.396;2023-04-03T13:46:41;8.10;1.00
13074;DHT22;6603;47.066;15.396;2023-04-03T13:48:53;8.10;1.00
13074;DHT22;6603;47.066;15.396;2023-04-03T13:53:58;7.90;1.00
13074;DHT22;6603;47.066;15.396;2023-04-03T13:59:03;8.70;1.00
13074;DHT22;6603;47.066;15.396;2023-04-03T14:01:45;9.20;1.00
13074;DHT22;6603;47.066;15.396;2023-04-03T14:04:23;9.30;1.00
13074;DHT22;6603;47.066;15.396;2023-04-03T14:06:50;9.50;1.00
13074;DHT22;6603;47.066;15.396;2023-04-03T14:09:18;9.60;1.00
13074;DHT22;6603;47.066;15.396;2023-04-03T14:11:45;9.40;1.00
13074;DHT22;6603;47.066;15.396;2023-04-03T14:14:21;9.20;1.00
13074;DHT22;6603;47.066;15.396;2023-04-03T14:16:54;9.30;1.00
13074;DHT22;6603;47.066;15.396;2023-04-03T14:19:31;9.00;1.00
13074;DHT22;6603;47.066;15.396;2023-04-03T14:21:59;9.00;1.00
13074;DHT22;6603;47.066;15.396;2023-04-03T14:24:25;9.30;1.00
13074;DHT22;6603;47.066;15.396;2023-04-03T14:26:54;9.10;1.00
13074;DHT22;6603;47.066;15.396;2023-04-03T14:29:21;8.90;1.00
13074;DHT22;6603;47.066;15.396;2023-04-03T14:31:49;9.00;1.00
13074;DHT22;6603;47.066;15.396;2023-04-03T14:34:16;8.90;1.00
13074;DHT22;6603;47.066;15.396;2023-04-03T14:36:43;8.80;1.00
13074;DHT22;6603;47.066;15.396;2023-04-03T14:39:17;8.70;1.00
13074;DHT22;6603;47.066;15.396;2023-04-03T14:41:45;8.90;1.00
13074;DHT22;6603;47.066;15.396;2023-04-03T14:44:11;8.90;1.00
13074;DHT22;6603;47.066;15.396;2023-04-03T14:46:41;9.00;1.00
13074;DHT22;6603;47.066;15.396;2023-04-03T14:49:30;8.80;1.00
13074;DHT22;6603;47.066;15.396;2023-04-03T14:51:57;8.90;1.00
13074;DHT22;6603;47.066;15.396;2023-04-03T14:54:25;8.50;1.00
13074;DHT22;6603;47.066;15.396;2023-04-03T14:56:54;8.60;1.00
13074;DHT22;6603;47.066;15.396;2023-04-03T14:59:21;8.70;1.00
13074;DHT22;6603;47.066;15.396;2023-04-03T15:01:47;8.70;1.00
13074;DHT22;6603;47.066;15.396;2023-04-03T15:04:18;8.80;1.00
13074;DHT22;6603;47.066;15.396;2023-04-03T15:06:46;8.80;1.00
13074;DHT22;6603;47.066;15.396;2023-04-03T15:09:25;8.80;1.00
13074;DHT22;6603;47.066;15.396;2023-04-03T15:11:53;8.80;99.90
13074;DHT22;6603;47.066;15.396;2023-04-03T15:14:21;9.20;1.00
13074;DHT22;6603;47.066;15.396;2023-04-03T15:16:48;9.30;1.00
13074;DHT22;6603;47.066;15.396;2023-04-03T15:19:14;9.40;1.00
13074;DHT22;6603;47.066;15.396;2023-04-03T15:21:40;9.30;99.90
13074;DHT22;6603;47.066;15.396;2023-04-03T15:24:08;9.40;99.90
13074;DHT22;6603;47.066;15.396;2023-04-03T15:26:34;9.50;99.90
13074;DHT22;6603;47.066;15.396;2023-04-03T15:29:00;9.20;99.90
13074;DHT22;6603;47.066;15.396;2023-04-03T15:31:27;9.10;99.90
13074;DHT22;6603;47.066;15.396;2023-04-03T15:33:53;9.00;99.90
13074;DHT22;6603;47.066;15.396;2023-04-03T15:36:19;8.90;99.90
13074;DHT22;6603;47.066;15.396;2023-04-03T15:38:45;8.70;99.90
13074;DHT22;6603;47.066;15.396;2023-04-03T15:41:11;8.70;99.90
13074;DHT22;6603;47.066;15.396;2023-04-03T15:43:37;8.40;99.90
13074;DHT22;6603;47.066;15.396;2023-04-03T15:46:03;8.40;99.90
13074;DHT22;6603;47.066;15.396;2023-04-03T15:48:30;8.50;99.90
13074;DHT22;6603;47.066;15.396;2023-04-03T15:50:56;8.40;99.90
13074;DHT22;6603;47.066;15.396;2023-04-03T15:53:22;8.40;99.90
13074;DHT22;6603;47.066;15.396;2023-04-03T15:55:48;8.30;99.90
13074;DHT22;6603;47.066;15.396;2023-04-03T15:58:14;8.10;99.90
13074;DHT22;6603;47.066;15.396;2023-04-03T16:00:40;7.90;99.90
13074;DHT22;6603;47.066;15.396;2023-04-03T16:03:16;7.90;99.90
13074;DHT22;6603;47.066;15.396;2023-04-03T16:05:42;7.60;99.90
13074;DHT22;6603;47.066;15.396;2023-04-03T16:08:09;7.40;99.90
13074;DHT22;6603;47.066;15.396;2023-04-03T16:10:35;7.20;99.90
13074;DHT22;6603;47.066;15.396;2023-04-03T16:13:02;7.10;99.90
13074;DHT22;6603;47.066;15.396;2023-04-03T16:15:29;6.90;99.90
13074;DHT22;6603;47.066;15.396;2023-04-03T16:17:57;6.90;99.90
13074;DHT22;6603;47.066;15.396;2023-04-03T16:20:25;6.90;99.90
13074;DHT22;6603;47.066;15.396;2023-04-03T16:22:51;6.80;99.90
13074;DHT22;6603;47.066;15.396;2023-04-03T16:25:18;6.80;99.90
13074;DHT22;6603;47.066;15.396;2023-04-03T16:27:44;6.70;99.90
13074;DHT22;6603;47.066;15.396;2023-04-03T16:30:11;6.60;99.90
13074;DHT22;6603;47.066;15.396;2023-04-03T16:32:39;6.50;99.90
13074;DHT22;6603;47.066;15.396;2023-04-03T16:35:06;6.40;99.90
13074;DHT22;6603;47.066;15.396;2023-04-03T16:37:32;6.40;99.90
13074;DHT22;6603;47.066;15.396;2023-04-03T16:39:58;6.10;99.90
13074;DHT22;6603;47.066;15.396;2023-04-03T16:42:25;6.00;99.90
13074;DHT22;6603;47.066;15.396;2023-04-03T16:44:51;5.90;99.90
13074;DHT22;6603;47.066;15.396;2023-04-03T16:47:17;5.80;99.90
13074;DHT22;6603;47.066;15.396;2023-04-03T16:49:45;5.70;99.90
13074;DHT22;6603;47.066;15.396;2023-04-03T16:52:12;5.60;99.90
13074;DHT22;6603;47.066;15.396;2023-04-03T16:54:38;5.60;1.00
13074;DHT22;6603;47.066;15.396;2023-04-03T16:57:04;5.50;1.00
13074;DHT22;6603;47.066;15.396;2023-04-03T16:59:30;5.40;1.00
13074;DHT22;6603;47.066;15.396;2023-04-03T17:01:56;5.30;1.00
13074;DHT22;6603;47.066;15.396;2023-04-03T17:04:22;5.40;1.00
13074;DHT22;6603;47.066;15.396;2023-04-03T17:06:48;5.10;1.00
13074;DHT22;6603;47.066;15.396;2023-04-03T17:09:14;5.10;1.00
13074;DHT22;6603;47.066;15.396;2023-04-03T17:11:41;5.00;1.00
13074;DHT22;6603;47.066;15.396;2023-04-03T17:14:06;5.00;1.00
13074;DHT22;6603;47.066;15.396;2023-04-03T17:16:35;4.90;1.00
13074;DHT22;6603;47.066;15.396;2023-04-03T17:19:02;4.90;1.00
13074;DHT22;6603;47.066;15.396;2023-04-03T17:21:29;4.90;1.00
13074;DHT22;6603;47.066;15.396;2023-04-03T17:23:59;4.70;1.00
13074;DHT22;6603;47.066;15.396;2023-04-03T17:26:26;4.70;1.00
13074;DHT22;6603;47.066;15.396;2023-04-03T17:28:52;4.60;1.00
13074;DHT22;6603;47.066;15.396;2023-04-03T17:31:18;4.50;1.00
13074;DHT22;6603;47.066;15.396;2023-04-03T17:33:44;4.50;1.00
13074;DHT22;6603;47.066;15.396;2023-04-03T17:36:10;4.50;1.00
13074;DHT22;6603;47.066;15.396;2023-04-03T17:38:36;4.40;1.00
13074;DHT22;6603;47.066;15.396;2023-04-03T17:41:05;4.30;1.00